Time;durP1;ratioP1;P1;durP2;ratioP2;P2;SDS_P1;SDS_P2;PMS_P1;PMS_P2;Temp;Humidity;BMP_temperature;BMP_pressure;BME280_temperature;BME280_humidity;BME280_pressure;Samples;Min_cycle;Max_cycle;Signal;HPM_P1;HPM_P2
2023/12/20 00:02:21;;;;;;;14.37;2.00;;;5.70;99.90;;;;;;5074152;28;20244;-54
2023/12/20 00:04:47;;;;;;;11.87;2.57;;;5.70;99.90;;;;;;5082001;28;20239;-53
2023/12/20 00:07:16;;;;;;;10.73;1.70;;;5.70;99.90;;;;;;5064993;28;20604;-53
2023/12/20 00:09:43;;;;;;;7.10;1.60;;;5.70;99.90;;;;;;5066684;28;20225;-53
2023/12/20 00:12:11;;;;;;;8.43;1.47;;;5.60;99.90;;;;;;5093975;28;20315;-53
2023/12/20 00:14:38;;;;;;;15.10;1.77;;;5.60;99.90;;;;;;5089297;28;20834;-53
2023/12/20 00:17:05;;;;;;;7.40;1.27;;;5.60;99.90;;;;;;5089617;28;20197;-55
2023/12/20 00:19:31;;;;;;;13.63;2.10;;;5.60;99.90;;;;;;5075329;28;20234;-54
2023/12/20 00:21:59;;;;;;;11.67;1.70;;;5.60;99.90;;;;;;5061855;28;20354;-53
2023/12/20 00:24:27;;;;;;;5.40;1.43;;;5.50;99.90;;;;;;5081714;28;20217;-54
2023/12/20 00:26:54;;;;;;;13.73;1.40;;;5.50;99.90;;;;;;5075474;28;20201;-54
2023/12/20 00:29:21;;;;;;;12.20;1.63;;;5.50;99.90;;;;;;5080199;28;20290;-54
2023/12/20 00:31:48;;;;;;;8.40;1.67;;;5.50;99.90;;;;;;5072229;28;20325;-54
2023/12/20 00:34:14;;;;;;;8.63;1.67;;;5.50;99.90;;;;;;5075095;28;20747;-54
2023/12/20 00:36:41;;;;;;;6.27;1.60;;;5.50;99.90;;;;;;5054036;28;20259;-58
2023/12/20 00:39:08;;;;;;;12.23;1.73;;;5.40;99.90;;;;;;5082920;28;20205;-63
2023/12/20 00:41:37;;;;;;;8.37;1.63;;;5.50;99.90;;;;;;5070029;28;20197;-52
2023/12/20 00:44:04;;;;;;;8.43;1.40;;;5.50;99.90;;;;;;5080074;28;20256;-56
2023/12/20 00:46:30;;;;;;;10.33;2.17;;;5.50;99.90;;;;;;5081986;28;20205;-54
2023/12/20 00:48:57;;;;;;;10.23;1.10;;;5.50;99.90;;;;;;5078629;28;20213;-53
2023/12/20 00:51:24;;;;;;;8.37;1.40;;;5.50;99.90;;;;;;5076976;28;20201;-55
2023/12/20 00:53:54;;;;;;;7.60;1.67;;;5.50;99.90;;;;;;5059333;28;20697;-55
2023/12/20 00:56:21;;;;;;;11.77;1.60;;;5.50;99.90;;;;;;5071313;28;20210;-55
2023/12/20 00:58:49;;;;;;;9.87;1.70;;;5.50;99.90;;;;;;5073122;28;20702;-54
2023/12/20 01:01:17;;;;;;;11.20;2.00;;;5.50;99.90;;;;;;5076933;28;20263;-54
2023/12/20 01:03:44;;;;;;;9.03;1.57;;;5.50;99.90;;;;;;5081082;28;20190;-55
2023/12/20 01:06:11;;;;;;;6.50;1.50;;;5.50;99.90;;;;;;5077285;28;20244;-52
2023/12/20 01:08:38;;;;;;;6.90;1.80;;;5.60;99.90;;;;;;5058439;28;20206;-54
2023/12/20 01:11:06;;;;;;;10.53;1.90;;;5.50;99.90;;;;;;5073678;28;20294;-53
2023/12/20 01:13:32;;;;;;;8.80;1.17;;;5.50;99.90;;;;;;5069847;28;20267;-56
2023/12/20 01:16:01;;;;;;;7.37;1.37;;;5.50;99.90;;;;;;5074769;28;20206;-53
2023/12/20 01:18:28;;;;;;;10.47;2.97;;;5.50;99.90;;;;;;5079029;28;20281;-53
2023/12/20 01:20:54;;;;;;;10.20;1.73;;;5.50;99.90;;;;;;5074674;28;20194;-55
2023/12/20 01:23:22;;;;;;;9.47;1.77;;;5.40;99.90;;;;;;5057168;28;20229;-54
2023/12/20 01:25:49;;;;;;;6.00;1.50;;;5.40;99.90;;;;;;5083847;28;20217;-56
2023/12/20 01:28:17;;;;;;;7.10;1.53;;;5.40;99.90;;;;;;5069771;28;20281;-55
2023/12/20 01:30:44;;;;;;;11.63;1.97;;;5.40;99.90;;;;;;5079371;28;20280;-52
2023/12/20 01:33:12;;;;;;;9.43;1.60;;;5.40;99.90;;;;;;5076682;28;20864;-54
2023/12/20 01:35:38;;;;;;;13.67;2.20;;;5.40;99.90;;;;;;5081341;28;20201;-55
2023/12/20 01:38:05;;;;;;;9.33;2.20;;;5.40;99.90;;;;;;5056618;28;20210;-53
2023/12/20 01:40:32;;;;;;;6.17;1.20;;;5.40;99.90;;;;;;5071951;28;20294;-55
2023/12/20 01:43:00;;;;;;;15.30;1.60;;;5.40;99.90;;;;;;5065797;28;20207;-55
2023/12/20 01:45:27;;;;;;;11.00;2.20;;;5.40;99.90;;;;;;5081468;28;20197;-55
2023/12/20 01:47:54;;;;;;;9.10;2.00;;;5.40;99.90;;;;;;5078501;28;20542;-54
2023/12/20 01:50:23;;;;;;;5.73;1.47;;;5.40;99.90;;;;;;5085332;28;20319;-55
2023/12/20 01:52:52;;;;;;;13.43;2.10;;;5.40;99.90;;;;;;5083353;28;20214;-53
2023/12/20 01:55:19;;;;;;;10.23;1.63;;;5.40;99.90;;;;;;5065256;28;20304;-54
2023/12/20 01:57:47;;;;;;;21.00;2.23;;;5.50;99.90;;;;;;5075669;28;20286;-53
2023/12/20 02:00:15;;;;;;;14.20;2.17;;;5.50;99.90;;;;;;5074131;28;20217;-53
2023/12/20 02:02:42;;;;;;;11.43;1.40;;;5.50;99.90;;;;;;5078344;28;20190;-52
2023/12/20 02:05:09;;;;;;;6.53;1.87;;;5.60;99.90;;;;;;5069602;28;20539;-56
2023/12/20 02:07:38;;;;;;;8.47;1.83;;;5.50;99.90;;;;;;5074759;28;20202;-56
2023/12/20 02:10:05;;;;;;;7.93;1.70;;;5.50;99.90;;;;;;5051495;28;21138;-54
2023/12/20 02:12:32;;;;;;;6.97;1.63;;;5.50;99.90;;;;;;5078073;28;20190;-53
2023/12/20 02:14:59;;;;;;;10.27;1.77;;;5.50;99.90;;;;;;5064999;28;20635;-54
2023/12/20 02:17:26;;;;;;;10.97;1.87;;;5.50;99.90;;;;;;5080443;28;20287;-53
2023/12/20 02:19:53;;;;;;;14.43;2.00;;;5.50;99.90;;;;;;5065359;28;20743;-56
2023/12/20 02:22:21;;;;;;;5.10;1.57;;;5.50;99.90;;;;;;5077399;28;20282;-56
2023/12/20 02:24:48;;;;;;;9.07;1.30;;;5.50;99.90;;;;;;5071623;28;20290;-54
2023/12/20 02:27:17;;;;;;;11.30;1.90;;;5.50;99.90;;;;;;5056326;28;20255;-54
2023/12/20 02:29:44;;;;;;;5.73;1.27;;;5.50;99.90;;;;;;5064270;28;20270;-54
2023/12/20 02:32:10;;;;;;;9.67;1.60;;;5.50;99.90;;;;;;5082254;28;20267;-54
2023/12/20 02:34:37;;;;;;;8.47;1.20;;;5.50;99.90;;;;;;5076151;28;20262;-54
2023/12/20 02:37:04;;;;;;;8.93;1.20;;;5.60;99.90;;;;;;5073707;28;20267;-55
2023/12/20 02:39:33;;;;;;;9.77;1.60;;;5.60;99.90;;;;;;5074776;28;20217;-54
2023/12/20 02:42:00;;;;;;;16.53;1.53;;;5.60;99.90;;;;;;5051434;28;20894;-51
2023/12/20 02:44:26;;;;;;;5.90;1.33;;;5.60;99.90;;;;;;5065896;28;20214;-51
2023/12/20 02:46:53;;;;;;;10.57;1.40;;;5.60;99.90;;;;;;5075635;28;20181;-53
2023/12/20 02:49:20;;;;;;;7.73;1.63;;;5.60;99.90;;;;;;5073140;28;20233;-54
2023/12/20 02:51:47;;;;;;;8.33;2.03;;;5.60;99.90;;;;;;5077679;28;20229;-54
2023/12/20 02:54:14;;;;;;;10.30;1.63;;;5.60;99.90;;;;;;5082732;28;20200;-54
2023/12/20 02:56:42;;;;;;;8.17;1.53;;;5.60;99.90;;;;;;5068751;28;20213;-53
2023/12/20 02:59:09;;;;;;;5.50;1.03;;;5.60;99.90;;;;;;5079845;28;20241;-54
2023/12/20 03:01:36;;;;;;;3.70;1.53;;;5.60;99.90;;;;;;5078770;28;20226;-54
2023/12/20 03:04:03;;;;;;;9.07;1.27;;;5.60;99.90;;;;;;5079910;28;20248;-55
2023/12/20 03:06:29;;;;;;;13.17;2.07;;;5.70;99.90;;;;;;5085621;28;20243;-53
2023/12/20 03:08:56;;;;;;;9.57;1.80;;;5.60;99.90;;;;;;5083638;28;20863;-55
2023/12/20 03:11:27;;;;;;;6.60;1.83;;;5.60;99.90;;;;;;5089758;28;20272;-56
2023/12/20 03:13:55;;;;;;;9.47;1.73;;;5.60;99.90;;;;;;5065751;28;20205;-54
2023/12/20 03:16:22;;;;;;;11.03;2.23;;;5.60;99.90;;;;;;5072870;28;20242;-54
2023/12/20 03:18:49;;;;;;;12.07;1.87;;;5.70;99.90;;;;;;5085070;28;20965;-53
2023/12/20 03:21:16;;;;;;;9.83;1.63;;;5.60;99.90;;;;;;5084820;28;20194;-55
2023/12/20 03:23:44;;;;;;;6.40;1.70;;;5.60;99.90;;;;;;5081313;28;20215;-53
2023/12/20 03:26:11;;;;;;;6.67;1.23;;;5.60;99.90;;;;;;5083396;28;20197;-53
2023/12/20 03:28:38;;;;;;;9.53;1.27;;;5.60;99.90;;;;;;5061606;28;20225;-54
2023/12/20 03:31:06;;;;;;;6.07;1.40;;;5.60;99.90;;;;;;5065444;28;20201;-53
2023/12/20 03:33:33;;;;;;;6.53;1.73;;;5.70;99.90;;;;;;5084071;28;20839;-55
2023/12/20 03:35:59;;;;;;;14.37;1.70;;;5.60;99.90;;;;;;5081647;28;20204;-55
2023/12/20 03:38:30;;;;;;;7.50;1.83;;;5.70;99.90;;;;;;5077306;28;20222;-55
2023/12/20 03:40:56;;;;;;;12.37;2.30;;;5.70;99.90;;;;;;5077678;28;20663;-53
2023/12/20 03:43:23;;;;;;;7.53;1.40;;;5.70;99.90;;;;;;5065534;28;21232;-53
2023/12/20 03:45:50;;;;;;;7.47;1.50;;;5.70;99.90;;;;;;5082151;28;20254;-54
2023/12/20 03:48:18;;;;;;;6.43;1.47;;;5.70;99.90;;;;;;5065273;28;20198;-51
2023/12/20 03:50:45;;;;;;;12.37;1.97;;;5.60;99.90;;;;;;5078951;28;20217;-55
2023/12/20 03:53:11;;;;;;;3.57;1.10;;;5.70;99.90;;;;;;5079651;28;20190;-53
2023/12/20 03:55:38;;;;;;;9.17;2.23;;;5.60;99.90;;;;;;5074327;28;20197;-56
2023/12/20 03:58:05;;;;;;;10.83;1.97;;;5.60;99.90;;;;;;5058639;28;20263;-54
2023/12/20 04:00:32;;;;;;;9.67;1.40;;;5.60;99.90;;;;;;5079847;28;20569;-53
2023/12/20 04:02:59;;;;;;;12.00;1.57;;;5.60;99.90;;;;;;5063996;28;20205;-55
2023/12/20 04:05:27;;;;;;;13.20;1.83;;;5.60;99.90;;;;;;5078714;28;20257;-53
2023/12/20 04:07:54;;;;;;;4.73;1.50;;;5.60;99.90;;;;;;5081847;28;20838;-55
2023/12/20 04:10:21;;;;;;;9.30;1.27;;;5.60;99.90;;;;;;5076600;28;20533;-54
2023/12/20 04:12:48;;;;;;;11.07;2.00;;;5.60;99.90;;;;;;5082161;28;20209;-55
2023/12/20 04:15:15;;;;;;;5.33;1.50;;;5.60;99.90;;;;;;5055636;28;20198;-56
2023/12/20 04:17:41;;;;;;;9.03;2.00;;;5.60;99.90;;;;;;5068906;28;20914;-55
2023/12/20 04:20:09;;;;;;;8.63;2.13;;;5.60;99.90;;;;;;5079341;28;20223;-53
2023/12/20 04:22:37;;;;;;;6.60;1.60;;;5.60;99.90;;;;;;5090145;28;20668;-53
2023/12/20 04:25:05;;;;;;;9.43;1.53;;;5.70;99.90;;;;;;5088432;28;20709;-53
2023/12/20 04:27:31;;;;;;;4.97;1.53;;;5.70;99.90;;;;;;5094839;28;20297;-55
2023/12/20 04:29:58;;;;;;;10.07;1.70;;;5.60;99.90;;;;;;5077942;28;20217;-52
2023/12/20 04:32:25;;;;;;;6.27;1.50;;;5.60;99.90;;;;;;5082615;28;20850;-55
2023/12/20 04:34:52;;;;;;;6.73;1.40;;;5.60;99.90;;;;;;5080120;28;20275;-55
2023/12/20 04:37:19;;;;;;;7.67;1.60;;;5.60;99.90;;;;;;5083654;28;20279;-54
2023/12/20 04:39:47;;;;;;;9.60;1.80;;;5.70;99.90;;;;;;5092841;28;20213;-50
2023/12/20 04:42:13;;;;;;;7.23;1.60;;;5.60;99.90;;;;;;5074746;28;20194;-55
2023/12/20 04:44:40;;;;;;;10.07;1.80;;;5.60;99.90;;;;;;5084131;28;20249;-53
2023/12/20 04:47:07;;;;;;;10.83;2.10;;;5.70;99.90;;;;;;5056665;28;20225;-54
2023/12/20 04:49:34;;;;;;;9.77;2.03;;;5.70;99.90;;;;;;5060067;28;20703;-53
2023/12/20 04:52:01;;;;;;;11.00;1.70;;;5.70;99.90;;;;;;5070340;28;20258;-54
2023/12/20 04:54:27;;;;;;;6.33;2.07;;;5.70;99.90;;;;;;5075965;28;20195;-53
2023/12/20 04:56:56;;;;;;;7.37;1.40;;;5.70;99.90;;;;;;5066112;28;20298;-55
2023/12/20 04:59:23;;;;;;;5.50;1.23;;;5.70;99.90;;;;;;5083257;28;20213;-54
2023/12/20 05:01:50;;;;;;;11.30;1.63;;;5.70;99.90;;;;;;5059702;28;20271;-53
2023/12/20 05:04:17;;;;;;;6.80;2.50;;;5.70;99.90;;;;;;5070039;28;20207;-53
2023/12/20 05:06:44;;;;;;;8.33;1.73;;;5.70;99.90;;;;;;5062208;28;20891;-55
2023/12/20 05:09:11;;;;;;;9.70;1.40;;;5.70;99.90;;;;;;5078504;28;20221;-52
2023/12/20 05:11:37;;;;;;;4.80;0.93;;;5.70;99.90;;;;;;5072659;28;20206;-54
2023/12/20 05:14:05;;;;;;;10.60;1.70;;;5.80;99.90;;;;;;5082472;28;20605;-52
2023/12/20 05:16:32;;;;;;;6.43;1.60;;;5.80;99.90;;;;;;5059070;28;20210;-54
2023/12/20 05:19:00;;;;;;;7.87;1.80;;;5.80;99.90;;;;;;5076335;28;20206;-53
2023/12/20 05:21:27;;;;;;;7.27;1.30;;;5.80;99.90;;;;;;5068879;28;20692;-54
2023/12/20 05:23:54;;;;;;;11.23;1.80;;;5.80;99.90;;;;;;5085651;28;20198;-53
2023/12/20 05:26:21;;;;;;;8.37;1.53;;;5.80;99.90;;;;;;5078904;28;20291;-55
2023/12/20 05:28:47;;;;;;;8.37;1.73;;;5.90;99.90;;;;;;5071611;28;20217;-54
2023/12/20 05:31:15;;;;;;;5.77;1.70;;;5.90;99.90;;;;;;5055371;28;21407;-50
2023/12/20 05:33:42;;;;;;;8.07;1.70;;;5.90;99.90;;;;;;5077591;28;20221;-53
2023/12/20 05:36:11;;;;;;;4.07;1.20;;;5.90;99.90;;;;;;5068600;28;20202;-54
2023/12/20 05:38:37;;;;;;;17.03;3.33;;;6.00;99.90;;;;;;5075573;28;20565;-53
2023/12/20 05:41:04;;;;;;;10.33;2.30;;;6.00;99.90;;;;;;5081783;28;20194;-54
2023/12/20 05:43:31;;;;;;;7.43;1.43;;;6.00;99.90;;;;;;5078678;28;20263;-52
2023/12/20 05:45:58;;;;;;;10.00;2.23;;;6.00;99.90;;;;;;5057697;28;20229;-55
2023/12/20 05:48:26;;;;;;;7.30;1.73;;;5.90;99.90;;;;;;5071952;28;20210;-53
2023/12/20 05:50:53;;;;;;;10.23;1.50;;;5.90;99.90;;;;;;5061991;28;20199;-52
2023/12/20 05:53:20;;;;;;;7.27;1.73;;;5.90;99.90;;;;;;5075878;28;20205;-54
2023/12/20 05:55:47;;;;;;;5.13;1.27;;;5.90;99.90;;;;;;5076010;28;20199;-53
2023/12/20 05:58:14;;;;;;;8.07;1.60;;;5.90;99.90;;;;;;5067659;28;20217;-55
2023/12/20 06:00:41;;;;;;;10.00;2.30;;;5.90;99.90;;;;;;5080288;28;20622;-52
2023/12/20 06:03:07;;;;;;;9.70;1.80;;;5.90;99.90;;;;;;5052327;28;20902;-56
2023/12/20 06:05:35;;;;;;;2.10;1.27;;;5.90;99.90;;;;;;5069074;28;20208;-53
2023/12/20 06:08:02;;;;;;;10.93;1.90;;;5.90;99.90;;;;;;5067656;28;20205;-53
2023/12/20 06:10:29;;;;;;;7.53;1.90;;;5.90;99.90;;;;;;5078099;28;20229;-51
2023/12/20 06:12:58;;;;;;;7.80;2.07;;;5.90;99.90;;;;;;5073922;28;20206;-55
2023/12/20 06:15:25;;;;;;;7.43;1.70;;;5.90;99.90;;;;;;5083037;28;20197;-53
2023/12/20 06:17:52;;;;;;;11.87;1.80;;;5.90;99.90;;;;;;5065277;28;20249;-55
2023/12/20 06:20:18;;;;;;;15.17;1.80;;;5.90;99.90;;;;;;5078619;28;20291;-55
2023/12/20 06:22:47;;;;;;;8.37;2.30;;;5.90;99.90;;;;;;5065204;28;20235;-55
2023/12/20 06:25:14;;;;;;;6.67;1.70;;;5.90;99.90;;;;;;5067108;28;20255;-53
2023/12/20 06:27:41;;;;;;;15.13;2.33;;;5.90;99.90;;;;;;5073168;28;20281;-53
2023/12/20 06:30:10;;;;;;;12.23;1.77;;;6.00;99.90;;;;;;5069221;28;20233;-53
2023/12/20 06:32:37;;;;;;;10.43;2.17;;;5.90;99.90;;;;;;5064878;28;20212;-55
2023/12/20 06:35:05;;;;;;;16.03;2.63;;;6.00;99.90;;;;;;5057326;28;20307;-55
2023/12/20 06:37:32;;;;;;;13.07;2.73;;;6.00;99.90;;;;;;5067461;28;20216;-54
2023/12/20 06:40:00;;;;;;;12.67;2.17;;;6.00;99.90;;;;;;5071768;28;20225;-52
2023/12/20 06:42:27;;;;;;;12.07;2.30;;;6.00;99.90;;;;;;5073861;28;20206;-54
2023/12/20 06:44:54;;;;;;;11.83;2.27;;;6.00;99.90;;;;;;5077095;28;20190;-56
2023/12/20 06:47:21;;;;;;;9.40;2.10;;;6.00;99.90;;;;;;5072477;28;20194;-55
2023/12/20 06:49:48;;;;;;;6.60;1.50;;;6.00;99.90;;;;;;5065456;28;20628;-54
2023/12/20 06:52:14;;;;;;;13.90;2.23;;;6.00;99.90;;;;;;5067550;28;20202;-57
2023/12/20 06:54:41;;;;;;;8.27;2.20;;;6.10;99.90;;;;;;5085511;28;20205;-55
2023/12/20 06:57:09;;;;;;;10.77;2.03;;;6.10;99.90;;;;;;5071434;28;20256;-55
2023/12/20 06:59:39;;;;;;;10.63;1.50;;;6.10;99.90;;;;;;5079137;28;20210;-54
2023/12/20 07:02:06;;;;;;;11.30;2.23;;;6.10;99.90;;;;;;5078093;28;20206;-56
2023/12/20 07:04:33;;;;;;;9.83;2.07;;;6.10;99.90;;;;;;5081900;28;20194;-55
2023/12/20 07:07:00;;;;;;;9.97;2.50;;;6.10;99.90;;;;;;5059404;28;20189;-52
2023/12/20 07:09:27;;;;;;;14.80;2.00;;;6.10;99.90;;;;;;5069569;28;20245;-56
2023/12/20 07:11:54;;;;;;;9.77;1.83;;;6.10;99.90;;;;;;5067440;28;20278;-56
2023/12/20 07:14:22;;;;;;;8.47;1.90;;;6.10;99.90;;;;;;5081694;28;20559;-57
2023/12/20 07:16:49;;;;;;;14.30;2.40;;;6.10;99.90;;;;;;5079892;28;20235;-54
2023/12/20 07:19:16;;;;;;;10.53;2.30;;;6.10;99.90;;;;;;5080985;28;20213;-55
2023/12/20 07:21:43;;;;;;;10.83;2.23;;;6.10;99.90;;;;;;5064579;28;20236;-56
2023/12/20 07:24:10;;;;;;;10.93;2.10;;;6.10;99.90;;;;;;5067900;28;20206;-54
2023/12/20 07:26:37;;;;;;;12.30;2.67;;;6.10;99.90;;;;;;5077064;28;20825;-54
2023/12/20 07:29:04;;;;;;;12.33;3.20;;;6.10;99.90;;;;;;5070573;28;20214;-56
2023/12/20 07:31:32;;;;;;;9.17;2.23;;;6.10;99.90;;;;;;5074967;28;20647;-57
2023/12/20 07:33:59;;;;;;;12.97;2.50;;;6.10;99.90;;;;;;5071433;28;20982;-55
2023/12/20 07:36:26;;;;;;;8.93;2.43;;;6.10;99.90;;;;;;5055999;28;20829;-54
2023/12/20 07:38:52;;;;;;;9.53;2.70;;;6.10;99.90;;;;;;5063939;28;20801;-56
2023/12/20 07:41:21;;;;;;;13.00;2.53;;;6.10;99.90;;;;;;5084990;28;20247;-56
2023/12/20 07:43:49;;;;;;;13.97;2.63;;;6.10;99.90;;;;;;5067762;28;20208;-56
2023/12/20 07:46:16;;;;;;;14.33;2.43;;;6.10;99.90;;;;;;5082581;28;20212;-55
2023/12/20 07:48:44;;;;;;;11.30;2.10;;;6.10;99.90;;;;;;5084080;28;20269;-56
2023/12/20 07:51:11;;;;;;;14.77;2.20;;;6.10;99.90;;;;;;5082490;28;20225;-57
2023/12/20 07:53:38;;;;;;;16.37;2.17;;;6.10;99.90;;;;;;5069834;28;20217;-55
2023/12/20 07:56:15;;;;;;;14.63;2.53;;;6.10;99.90;;;;;;5070689;28;20264;-54
2023/12/20 07:58:41;;;;;;;8.33;2.07;;;6.10;99.90;;;;;;5075835;28;20213;-55
2023/12/20 08:01:08;;;;;;;12.80;2.77;;;6.20;99.90;;;;;;5075884;28;20206;-55
2023/12/20 08:03:35;;;;;;;10.70;2.13;;;6.20;99.90;;;;;;5086677;28;20266;-55
2023/12/20 08:06:04;;;;;;;8.57;2.00;;;6.20;99.90;;;;;;5080223;28;20190;-57
2023/12/20 08:08:31;;;;;;;15.30;2.37;;;6.20;99.90;;;;;;5074668;28;20297;-52
2023/12/20 08:10:59;;;;;;;16.00;2.43;;;6.20;99.90;;;;;;5073114;28;23595;-54
2023/12/20 08:13:27;;;;;;;12.27;2.00;;;6.20;99.90;;;;;;5083119;28;20561;-55
2023/12/20 08:15:55;;;;;;;11.73;2.33;;;6.20;99.90;;;;;;5079804;28;20193;-56
2023/12/20 08:18:22;;;;;;;12.00;2.80;;;6.20;99.90;;;;;;5085854;28;20217;-55
2023/12/20 08:20:52;;;;;;;18.90;3.43;;;6.30;99.90;;;;;;5078978;28;20516;-52
2023/12/20 08:23:21;;;;;;;13.40;2.43;;;6.30;99.90;;;;;;5059967;28;20198;-54
2023/12/20 08:25:48;;;;;;;13.00;3.07;;;6.30;99.90;;;;;;5070512;28;20186;-53
2023/12/20 08:28:15;;;;;;;8.63;2.17;;;6.40;99.90;;;;;;5064512;28;20274;-53
2023/12/20 08:30:42;;;;;;;9.20;1.40;;;6.40;99.90;;;;;;5074265;28;20210;-53
2023/12/20 08:33:12;;;;;;;7.17;2.73;;;6.40;99.90;;;;;;5080678;28;20225;-56
2023/12/20 08:35:39;;;;;;;11.40;2.10;;;6.40;99.90;;;;;;5081806;28;20930;-55
2023/12/20 08:38:06;;;;;;;9.07;1.97;;;6.50;99.90;;;;;;5086309;28;20213;-55
2023/12/20 08:40:35;;;;;;;4.30;1.90;;;6.50;99.90;;;;;;5052685;28;20304;-54
2023/12/20 08:43:02;;;;;;;10.53;2.47;;;6.50;99.90;;;;;;5069891;28;20281;-56
2023/12/20 08:45:29;;;;;;;9.53;2.60;;;6.50;99.90;;;;;;5079695;28;20197;-55
2023/12/20 08:47:56;;;;;;;10.10;2.50;;;6.50;99.90;;;;;;5076902;28;20300;-57
2023/12/20 08:50:23;;;;;;;8.97;2.23;;;6.60;99.90;;;;;;5076384;28;20519;-55
2023/12/20 08:52:49;;;;;;;10.27;2.40;;;6.60;99.90;;;;;;5084473;28;20254;-54
2023/12/20 08:55:18;;;;;;;5.90;2.20;;;6.60;99.90;;;;;;5061287;28;20202;-56
2023/12/20 08:57:46;;;;;;;10.77;2.23;;;6.60;99.90;;;;;;5059575;28;20214;-57
2023/12/20 09:00:14;;;;;;;13.53;2.17;;;6.60;99.90;;;;;;5075431;28;20271;-54
2023/12/20 09:02:41;;;;;;;11.40;2.50;;;6.60;99.90;;;;;;5067056;28;20186;-56
2023/12/20 09:05:08;;;;;;;10.43;2.50;;;6.60;99.90;;;;;;5075775;28;20248;-55
2023/12/20 09:07:36;;;;;;;7.13;2.03;;;6.60;99.90;;;;;;5074136;28;20245;-57
2023/12/20 09:10:03;;;;;;;9.67;2.30;;;6.60;99.90;;;;;;5060106;28;20442;-57
2023/12/20 09:12:30;;;;;;;14.30;2.40;;;6.50;99.90;;;;;;5077413;28;20209;-56
2023/12/20 09:14:58;;;;;;;7.33;2.00;;;6.50;99.90;;;;;;5065311;28;20263;-56
2023/12/20 09:17:25;;;;;;;7.30;1.95;;;6.40;99.90;;;;;;5072566;28;20910;-54
2023/12/20 09:19:53;;;;;;;6.67;1.73;;;6.40;99.90;;;;;;5075489;28;20237;-56
2023/12/20 09:22:20;;;;;;;15.87;1.97;;;6.40;99.90;;;;;;5081878;28;20202;-56
2023/12/20 09:24:47;;;;;;;8.60;1.60;;;6.30;99.90;;;;;;5072975;28;20206;-57
2023/12/20 09:27:14;;;;;;;6.93;1.33;;;6.30;99.90;;;;;;5068478;28;20205;-53
2023/12/20 09:29:41;;;;;;;3.63;1.20;;;6.20;99.90;;;;;;5072971;28;20752;-56
2023/12/20 09:32:09;;;;;;;3.63;0.93;;;6.20;99.90;;;;;;5068411;28;20225;-55
2023/12/20 09:34:37;;;;;;;4.20;1.10;;;6.10;99.90;;;;;;5080556;28;20202;-53
2023/12/20 09:37:05;;;;;;;3.60;0.70;;;6.00;99.90;;;;;;5082545;28;20229;-55
2023/12/20 09:39:32;;;;;;;3.43;0.70;;;5.90;99.90;;;;;;5082500;28;20297;-54
2023/12/20 09:42:02;;;;;;;3.97;0.80;;;5.80;99.90;;;;;;5069723;28;20201;-53
2023/12/20 09:44:29;;;;;;;3.30;0.70;;;5.80;99.90;;;;;;5082404;28;20187;-54
2023/12/20 09:46:57;;;;;;;1.30;0.30;;;5.80;99.90;;;;;;5052832;28;20286;-53
2023/12/20 09:49:28;;;;;;;0.73;0.40;;;5.70;99.90;;;;;;5073537;28;20300;-55
2023/12/20 09:51:56;;;;;;;1.70;0.40;;;5.70;99.90;;;;;;5080414;28;20851;-53
2023/12/20 09:54:24;;;;;;;0.70;0.30;;;5.60;99.90;;;;;;5079451;28;20232;-55
2023/12/20 09:56:51;;;;;;;0.67;0.40;;;5.60;99.90;;;;;;5065528;28;20205;-54
2023/12/20 09:59:18;;;;;;;4.97;0.50;;;5.60;99.90;;;;;;5079724;28;20275;-54
2023/12/20 10:01:45;;;;;;;1.40;0.30;;;5.60;99.90;;;;;;5060177;28;20206;-54
2023/12/20 10:04:14;;;;;;;1.90;0.70;;;5.50;99.90;;;;;;5081203;28;20240;-54
2023/12/20 10:06:43;;;;;;;0.73;0.60;;;5.50;99.90;;;;;;5067698;28;20191;-52
2023/12/20 10:09:10;;;;;;;0.40;0.30;;;5.40;99.90;;;;;;5080160;28;20210;-53
2023/12/20 10:11:38;;;;;;;1.93;0.50;;;5.50;99.90;;;;;;5052681;28;24057;-56
2023/12/20 10:14:05;;;;;;;0.83;0.30;;;5.50;99.90;;;;;;5080252;28;20287;-57
2023/12/20 10:16:33;;;;;;;0.70;0.20;;;5.50;99.90;;;;;;5067179;28;20201;-55
2023/12/20 10:19:00;;;;;;;0.60;0.27;;;5.50;99.90;;;;;;5083516;28;20225;-54
2023/12/20 10:21:27;;;;;;;0.30;0.30;;;5.50;99.90;;;;;;5076031;28;20205;-55
2023/12/20 10:23:56;;;;;;;2.30;0.40;;;5.50;99.90;;;;;;5074335;28;20524;-55
2023/12/20 10:26:24;;;;;;;2.07;0.53;;;5.50;99.90;;;;;;5076637;28;20256;-57
2023/12/20 10:28:52;;;;;;;6.73;0.90;;;5.40;99.90;;;;;;5060201;28;20214;-56
2023/12/20 10:31:30;;;;;;;3.43;1.00;;;5.50;99.90;;;;;;5065290;28;20255;-54
2023/12/20 10:33:58;;;;;;;2.60;0.80;;;5.50;99.90;;;;;;5066741;28;20294;-54
2023/12/20 10:36:27;;;;;;;3.60;0.60;;;5.40;99.90;;;;;;5074298;28;20208;-54
2023/12/20 10:38:57;;;;;;;2.37;0.70;;;5.50;99.90;;;;;;5080719;28;20302;-54
2023/12/20 10:41:27;;;;;;;2.27;0.60;;;5.50;99.90;;;;;;5072976;28;20690;-56
2023/12/20 10:43:59;;;;;;;5.13;0.90;;;5.40;99.90;;;;;;5059020;28;20213;-54
2023/12/20 10:46:28;;;;;;;2.97;0.70;;;5.40;99.90;;;;;;5077969;28;20251;-55
2023/12/20 10:48:55;;;;;;;3.63;0.80;;;5.40;99.90;;;;;;5075403;28;21043;-54
2023/12/20 10:51:24;;;;;;;6.63;0.70;;;5.40;99.90;;;;;;5082131;28;20276;-55
2023/12/20 10:53:51;;;;;;;7.23;1.03;;;5.40;99.90;;;;;;5077686;28;20213;-54
2023/12/20 10:56:20;;;;;;;3.70;0.70;;;5.40;99.90;;;;;;5080626;28;20271;-55
2023/12/20 10:58:48;;;;;;;1.67;0.73;;;5.40;99.90;;;;;;5061083;28;20922;-53
2023/12/20 11:01:15;;;;;;;3.67;0.67;;;5.40;99.90;;;;;;5080965;28;20672;-56
2023/12/20 11:03:49;;;;;;;2.97;0.60;;;5.40;99.90;;;;;;5067021;28;20193;-53
2023/12/20 11:06:28;;;;;;;3.53;0.60;;;5.40;99.90;;;;;;5074366;28;20664;-55
2023/12/20 11:09:09;;;;;;;1.73;0.77;;;5.40;99.90;;;;;;5077056;28;20926;-56
2023/12/20 11:11:46;;;;;;;6.03;0.70;;;5.40;99.90;;;;;;5070155;28;20863;-55
2023/12/20 11:14:19;;;;;;;5.83;1.10;;;5.40;99.90;;;;;;5080220;28;20221;-56
2023/12/20 11:16:46;;;;;;;2.90;0.90;;;5.30;99.90;;;;;;5058380;28;20799;-55
2023/12/20 11:19:14;;;;;;;5.87;0.70;;;5.40;99.90;;;;;;5075639;28;20222;-56
2023/12/20 11:21:41;;;;;;;3.53;0.67;;;5.30;99.90;;;;;;5071436;28;20848;-55
2023/12/20 11:24:08;;;;;;;3.63;0.77;;;5.30;99.90;;;;;;5078338;28;20288;-55
2023/12/20 11:26:36;;;;;;;3.20;0.90;;;5.30;99.90;;;;;;5075186;28;20191;-55
2023/12/20 11:29:34;;;;;;;4.43;1.50;;;5.30;99.90;;;;;;5076379;28;20258;-54
2023/12/20 11:32:03;;;;;;;6.10;0.90;;;5.30;99.90;;;;;;5062063;28;20201;-56
2023/12/20 11:34:33;;;;;;;5.87;0.80;;;5.30;99.90;;;;;;5071998;28;20664;-55
2023/12/20 11:37:00;;;;;;;7.23;1.10;;;5.30;99.90;;;;;;5078943;28;20197;-56
2023/12/20 11:39:28;;;;;;;5.57;1.13;;;5.40;99.90;;;;;;5073875;28;20210;-57
2023/12/20 11:41:58;;;;;;;7.43;1.40;;;5.30;99.90;;;;;;5081088;28;20282;-56
2023/12/20 11:44:27;;;;;;;4.20;0.87;;;5.30;99.90;;;;;;5079843;28;20534;-56
2023/12/20 11:46:55;;;;;;;8.23;1.27;;;5.30;99.90;;;;;;5065081;28;20198;-58
2023/12/20 11:49:25;;;;;;;10.53;2.10;;;5.40;99.90;;;;;;5079411;28;20825;-57
2023/12/20 11:51:52;;;;;;;2.70;0.80;;;5.40;99.90;;;;;;5073835;28;20482;-57
2023/12/20 11:54:19;;;;;;;9.77;1.93;;;5.40;99.90;;;;;;5077384;28;20284;-57
2023/12/20 11:56:46;;;;;;;5.40;0.80;;;5.40;99.90;;;;;;5086162;28;20187;-55
2023/12/20 11:59:14;;;;;;;6.07;1.90;;;5.40;99.90;;;;;;5083301;28;20221;-54
2023/12/20 12:01:49;;;;;;;5.63;0.90;;;5.40;99.90;;;;;;5057455;28;20232;-54
2023/12/20 12:04:17;;;;;;;8.90;1.57;;;5.50;99.90;;;;;;5097618;28;20263;-55
2023/12/20 12:06:44;;;;;;;7.50;1.07;;;5.50;99.90;;;;;;5064293;28;20212;-54
2023/12/20 12:09:11;;;;;;;8.53;1.47;;;5.50;99.90;;;;;;5087886;28;20214;-52
2023/12/20 12:11:37;;;;;;;13.43;2.80;;;5.60;99.90;;;;;;5072994;28;20271;-58
2023/12/20 12:14:05;;;;;;;15.97;2.17;;;5.60;99.90;;;;;;5082400;28;20199;-56
2023/12/20 12:16:33;;;;;;;8.60;1.87;;;5.70;99.90;;;;;;5066348;28;20702;-57
2023/12/20 12:19:00;;;;;;;12.87;1.40;;;5.70;99.90;;;;;;5089927;28;20253;-56
2023/12/20 12:21:27;;;;;;;8.43;2.33;;;5.80;99.90;;;;;;5084164;28;20209;-56
2023/12/20 12:23:54;;;;;;;5.27;1.50;;;5.90;99.90;;;;;;5062243;28;20206;-55
2023/12/20 12:26:21;;;;;;;11.03;1.50;;;5.90;99.90;;;;;;5072455;28;20194;-56
2023/12/20 12:28:47;;;;;;;12.57;2.00;;;6.00;99.90;;;;;;5074223;28;20592;-57
2023/12/20 12:31:15;;;;;;;13.47;2.40;;;6.10;99.90;;;;;;5065986;28;20333;-56
2023/12/20 12:33:44;;;;;;;17.87;2.57;;;6.10;99.90;;;;;;5059630;28;20597;-54
2023/12/20 12:36:12;;;;;;;14.20;2.13;;;6.10;99.90;;;;;;5070246;28;20347;-56
2023/12/20 12:38:39;;;;;;;10.77;1.90;;;6.20;99.90;;;;;;5063620;28;20198;-55
2023/12/20 12:41:07;;;;;;;13.77;2.40;;;6.20;99.90;;;;;;5067453;28;20194;-55
2023/12/20 12:43:33;;;;;;;8.57;1.87;;;6.20;99.90;;;;;;5087345;28;20194;-53
2023/12/20 12:46:00;;;;;;;14.33;2.27;;;6.30;99.90;;;;;;5073026;28;20222;-57
2023/12/20 12:48:28;;;;;;;8.20;1.90;;;6.30;99.90;;;;;;5058564;28;21199;-54
2023/12/20 12:50:59;;;;;;;11.50;2.20;;;6.40;99.90;;;;;;5079053;28;20588;-56
2023/12/20 12:53:27;;;;;;;15.93;2.83;;;6.40;99.90;;;;;;5067279;28;20198;-56
2023/12/20 12:55:54;;;;;;;17.70;2.33;;;6.40;99.90;;;;;;5075836;28;20669;-57